Time;durP1;ratioP1;P1;durP2;ratioP2;P2;SDS_P1;SDS_P2;PMS_P1;PMS_P2;Temp;Humidity;BMP_temperature;BMP_pressure;BME280_temperature;BME280_humidity;BME280_pressure;Samples;Min_cycle;Max_cycle;Signal;HPM_P1;HPM_P2
2023/11/02 00:02:03;;;;;;;8.50;5.47;;;;;;;10.27;68.99;94799.66;5025937;28;20478;-68
2023/11/02 00:04:28;;;;;;;7.70;4.47;;;;;;;10.32;68.56;94797.59;5025496;28;20188;-68
2023/11/02 00:06:55;;;;;;;7.03;5.43;;;;;;;10.28;68.53;94793.50;5025596;28;21059;-68
2023/11/02 00:09:31;;;;;;;8.70;4.77;;;;;;;10.24;69.19;94797.25;5025799;28;20206;-67
2023/11/02 00:12:05;;;;;;;6.40;4.20;;;;;;;10.25;69.08;94798.06;5025724;28;20512;-69
2023/11/02 00:14:40;;;;;;;8.07;4.17;;;;;;;10.23;68.50;94787.72;5025468;28;20429;-69
2023/11/02 00:17:36;;;;;;;8.60;4.00;;;;;;;10.06;69.52;94773.13;5025843;28;20437;-68
2023/11/02 00:20:11;;;;;;;6.50;4.93;;;;;;;10.04;69.69;94755.81;5021853;28;21042;-68
2023/11/02 00:22:45;;;;;;;5.70;4.20;;;;;;;9.94;69.98;94751.22;5026200;28;20410;-69
2023/11/02 00:25:33;;;;;;;6.80;4.50;;;;;;;9.98;70.03;94753.63;5025864;28;20980;-68
2023/11/02 00:27:59;;;;;;;6.40;4.30;;;;;;;9.90;70.36;94741.88;5025815;28;20414;-67
2023/11/02 00:30:24;;;;;;;9.47;4.40;;;;;;;9.99;70.16;94731.72;5025838;28;20414;-69
2023/11/02 00:32:49;;;;;;;10.17;5.00;;;;;;;9.91;70.30;94729.63;5018586;28;20184;-68
2023/11/02 00:35:15;;;;;;;8.50;4.60;;;;;;;9.90;70.10;94735.81;5005575;28;20254;-68
2023/11/02 00:37:40;;;;;;;17.47;4.87;;;;;;;9.86;69.69;94719.44;5005881;28;20204;-69
2023/11/02 00:40:06;;;;;;;5.90;4.50;;;;;;;9.39;70.37;94723.47;5006164;28;20210;-68
2023/11/02 00:42:32;;;;;;;7.00;4.53;;;;;;;9.07;71.51;94718.56;5005699;28;20644;-69
2023/11/02 00:44:58;;;;;;;6.40;5.80;;;;;;;8.98;72.16;94721.78;5005538;28;20656;-68
2023/11/02 00:47:25;;;;;;;4.70;4.30;;;;;;;9.01;71.80;94715.50;5005338;28;20200;-68
2023/11/02 00:49:57;;;;;;;5.20;4.27;;;;;;;9.02;72.12;94711.94;5005596;28;21099;-68
2023/11/02 00:52:23;;;;;;;5.73;4.40;;;;;;;8.79;72.57;94713.44;5005350;28;20922;-68
2023/11/02 00:54:58;;;;;;;6.10;4.33;;;;;;;8.71;73.29;94713.09;5020320;28;20442;-68
2023/11/02 00:57:41;;;;;;;8.77;4.77;;;;;;;8.89;72.30;94698.84;5005559;28;20219;-68
2023/11/02 01:00:21;;;;;;;5.33;4.83;;;;;;;8.63;72.94;94692.66;5006024;28;20462;-68
2023/11/02 01:02:46;;;;;;;5.80;5.27;;;;;;;8.51;73.91;94683.00;5009450;28;20488;-68
2023/11/02 01:05:23;;;;;;;8.53;5.97;;;;;;;8.44;73.53;94679.91;5009005;28;20411;-67
2023/11/02 01:07:49;;;;;;;8.63;5.40;;;;;;;8.61;73.32;94671.00;5009024;28;20191;-69
2023/11/02 01:10:14;;;;;;;10.43;6.17;;;;;;;8.72;72.31;94665.94;5009083;28;20414;-68
2023/11/02 01:12:39;;;;;;;10.97;5.80;;;;;;;8.93;71.88;94668.06;5009330;28;20176;-68
2023/11/02 01:15:28;;;;;;;9.97;6.70;;;;;;;8.89;71.83;94662.22;5008816;28;20713;-68
2023/11/02 01:17:53;;;;;;;6.90;5.60;;;;;;;9.03;70.92;94649.06;5007686;28;20305;-68
2023/11/02 01:20:38;;;;;;;5.70;4.83;;;;;;;9.18;70.33;94657.66;5008750;28;20550;-67
2023/11/02 01:23:06;;;;;;;6.00;5.10;;;;;;;9.08;70.78;94636.50;5009060;28;20539;-67
2023/11/02 01:25:41;;;;;;;10.43;5.27;;;;;;;8.94;71.16;94638.38;5008786;28;20412;-68
2023/11/02 01:28:07;;;;;;;6.00;4.20;;;;;;;8.74;72.20;94623.97;5008815;28;20435;-67
2023/11/02 01:30:38;;;;;;;5.27;4.73;;;;;;;8.73;71.36;94609.22;5008609;28;20415;-68
2023/11/02 01:33:32;;;;;;;5.37;4.67;;;;;;;7.97;74.92;94600.91;5017260;28;20437;-69
2023/11/02 01:35:58;;;;;;;6.17;5.00;;;;;;;8.45;73.03;94584.84;5027040;28;20430;-68
2023/11/02 01:38:24;;;;;;;9.03;4.80;;;;;;;8.65;71.92;94583.59;5028287;28;20587;-69
2023/11/02 01:41:09;;;;;;;7.37;4.40;;;;;;;8.48;72.62;94587.28;5028223;28;20222;-68
2023/11/02 01:43:52;;;;;;;5.77;3.80;;;;;;;8.55;71.63;94587.72;5028211;28;21023;-68
2023/11/02 01:46:33;;;;;;;14.50;5.10;;;;;;;8.52;72.16;94583.53;5028037;28;20414;-68
2023/11/02 01:49:09;;;;;;;8.10;4.67;;;;;;;8.69;71.93;94585.91;5028105;28;20481;-68
2023/11/02 01:51:43;;;;;;;7.33;4.17;;;;;;;8.72;71.56;94594.44;5027634;28;20435;-68
2023/11/02 01:54:25;;;;;;;7.73;4.47;;;;;;;8.84;70.62;94580.59;5027872;28;20501;-69
2023/11/02 01:56:55;;;;;;;5.60;4.57;;;;;;;8.82;70.88;94574.63;5027739;28;20845;-69
2023/11/02 01:59:36;;;;;;;6.43;4.17;;;;;;;8.68;71.98;94572.91;5027745;28;20504;-68
2023/11/02 02:02:26;;;;;;;9.50;4.90;;;;;;;8.80;71.69;94550.34;5028079;28;20406;-68
2023/11/02 02:05:17;;;;;;;6.33;4.20;;;;;;;8.13;73.95;94532.03;5027960;28;20882;-68
2023/11/02 02:07:54;;;;;;;5.43;4.93;;;;;;;7.78;75.75;94529.88;5028128;28;20418;-68
2023/11/02 02:10:33;;;;;;;6.63;5.07;;;;;;;8.16;73.91;94522.22;5028035;28;20485;-68
2023/11/02 02:13:01;;;;;;;5.43;4.80;;;;;;;8.40;72.94;94530.28;5026804;28;20579;-68
2023/11/02 02:15:36;;;;;;;4.93;4.43;;;;;;;8.45;72.69;94525.56;5027355;28;20784;-68
2023/11/02 02:18:09;;;;;;;6.00;4.83;;;;;;;8.50;72.50;94520.03;5027412;28;20446;-68
2023/11/02 02:20:37;;;;;;;9.33;4.57;;;;;;;8.58;71.98;94515.16;5027822;28;20465;-68
2023/11/02 02:23:21;;;;;;;5.43;4.93;;;;;;;8.65;72.02;94512.97;5027385;28;20504;-69
2023/11/02 02:26:27;;;;;;;6.40;4.50;;;;;;;8.56;72.14;94501.34;5027402;28;20413;-68
2023/11/02 02:29:23;;;;;;;4.23;3.83;;;;;;;8.65;71.52;94508.59;5027366;28;20831;-68
2023/11/02 02:31:49;;;;;;;6.07;4.20;;;;;;;8.60;71.71;94507.22;5027363;28;20414;-68
2023/11/02 02:34:48;;;;;;;6.50;5.00;;;;;;;8.68;71.57;94494.47;5008488;28;20993;-69
2023/11/02 02:37:15;;;;;;;5.03;4.40;;;;;;;8.59;72.07;94477.59;5007386;28;20319;-68
2023/11/02 02:39:43;;;;;;;5.03;4.57;;;;;;;8.21;72.80;94475.72;5007198;28;20536;-68
2023/11/02 02:42:15;;;;;;;5.00;4.07;;;;;;;8.53;72.39;94480.66;5007281;28;20490;-69
2023/11/02 02:44:44;;;;;;;8.07;5.23;;;;;;;8.62;72.28;94472.19;5007351;28;20407;-68
2023/11/02 02:47:11;;;;;;;5.10;4.60;;;;;;;8.61;71.85;94472.28;5007210;28;20526;-69
2023/11/02 02:49:43;;;;;;;4.33;3.90;;;;;;;8.61;71.93;94460.03;5007534;28;20415;-68
2023/11/02 02:52:15;;;;;;;4.53;4.13;;;;;;;8.67;72.44;94458.81;5007160;28;20898;-68
2023/11/02 02:54:48;;;;;;;5.40;3.90;;;;;;;8.54;72.28;94457.94;5007380;28;20454;-68
2023/11/02 02:57:16;;;;;;;6.60;4.77;;;;;;;8.68;71.60;94450.00;5007363;28;20943;-68
2023/11/02 02:59:51;;;;;;;6.33;4.87;;;;;;;8.72;71.98;94445.41;5007141;28;20455;-68
2023/11/02 03:02:21;;;;;;;7.00;5.40;;;;;;;8.71;71.83;94441.13;5007305;28;20766;-69
2023/11/02 03:04:49;;;;;;;6.63;4.70;;;;;;;8.67;71.46;94438.72;5006966;28;20415;-68
2023/11/02 03:07:18;;;;;;;5.10;4.30;;;;;;;8.35;73.12;94429.56;5006898;28;21181;-68
2023/11/02 03:09:47;;;;;;;9.67;5.07;;;;;;;8.51;72.97;94422.41;5007040;28;20438;-67
2023/11/02 03:12:25;;;;;;;5.60;4.70;;;;;;;8.75;71.34;94421.69;5006928;28;20423;-68
2023/11/02 03:14:53;;;;;;;11.50;5.17;;;;;;;8.64;71.76;94404.09;5006423;28;20427;-69
2023/11/02 03:18:00;;;;;;;8.10;4.83;;;;;;;8.50;72.13;94405.03;5006634;28;20983;-68
2023/11/02 03:20:26;;;;;;;8.43;5.00;;;;;;;8.48;72.37;94388.63;5005522;28;20474;-68
2023/11/02 03:22:57;;;;;;;4.83;4.40;;;;;;;8.46;72.30;94387.91;5006444;28;20420;-68
2023/11/02 03:25:49;;;;;;;5.63;5.10;;;;;;;7.96;73.34;94394.66;5006458;28;20526;-68
2023/11/02 03:28:53;;;;;;;5.73;4.60;;;;;;;8.32;72.80;94401.03;5006521;28;20431;-68
2023/11/02 03:31:36;;;;;;;4.87;4.10;;;;;;;8.50;71.63;94385.91;5006532;28;20469;-69
2023/11/02 03:34:32;;;;;;;7.70;5.90;;;;;;;8.57;71.69;94387.97;5022763;28;20916;-68
2023/11/02 03:36:57;;;;;;;6.57;5.83;;;;;;;8.73;71.13;94379.09;5025977;28;20848;-69
2023/11/02 03:39:42;;;;;;;6.40;4.70;;;;;;;8.58;71.38;94370.53;5026130;28;20458;-68
2023/11/02 03:42:08;;;;;;;5.13;4.10;;;;;;;8.07;73.02;94358.22;5026264;28;20175;-69
2023/11/02 03:44:36;;;;;;;7.90;4.37;;;;;;;8.31;72.49;94354.91;5026379;28;20429;-69
2023/11/02 03:47:28;;;;;;;8.70;4.87;;;;;;;8.60;70.80;94338.13;5026091;28;20203;-68
2023/11/02 03:49:58;;;;;;;5.47;4.37;;;;;;;8.58;71.32;94340.00;5026503;28;20422;-68
2023/11/02 03:52:58;;;;;;;5.27;3.93;;;;;;;8.73;70.71;94326.81;5026246;28;20464;-68
2023/11/02 03:55:54;;;;;;;5.00;4.40;;;;;;;8.62;71.25;94315.31;5026074;28;20884;-68
2023/11/02 03:58:37;;;;;;;7.20;4.37;;;;;;;8.63;70.94;94305.69;5026039;28;20430;-69
2023/11/02 04:01:30;;;;;;;6.50;3.97;;;;;;;8.72;71.08;94299.81;5026423;28;20424;-69
2023/11/02 04:04:03;;;;;;;4.93;3.60;;;;;;;8.77;70.85;94283.81;5025745;28;20440;-69
2023/11/02 04:07:00;;;;;;;4.57;3.90;;;;;;;8.73;71.41;94272.72;5025984;28;20804;-68
2023/11/02 04:09:34;;;;;;;5.37;3.63;;;;;;;8.51;71.81;94262.13;5025412;28;20426;-68
2023/11/02 04:12:25;;;;;;;6.57;4.60;;;;;;;8.56;71.85;94255.59;5025923;28;20456;-69
2023/11/02 04:14:56;;;;;;;6.03;4.30;;;;;;;8.54;72.01;94257.50;5021588;28;20446;-69
2023/11/02 04:17:22;;;;;;;4.73;4.00;;;;;;;8.73;71.04;94254.41;5025890;28;20450;-67
2023/11/02 04:19:47;;;;;;;5.10;4.20;;;;;;;8.42;72.09;94253.94;5025805;28;21162;-68
2023/11/02 04:22:13;;;;;;;8.37;4.37;;;;;;;8.58;71.59;94242.44;5025599;28;20189;-68
2023/11/02 04:24:41;;;;;;;6.17;4.73;;;;;;;8.68;71.77;94248.69;5025727;28;20175;-68
2023/11/02 04:27:07;;;;;;;5.77;4.60;;;;;;;8.22;73.34;94246.63;5025561;28;20210;-68
2023/11/02 04:29:32;;;;;;;6.50;4.90;;;;;;;8.53;72.37;94248.00;5025650;28;20445;-68
2023/11/02 04:31:57;;;;;;;10.60;4.70;;;;;;;8.65;71.82;94239.28;5025580;28;20180;-67
2023/11/02 04:34:23;;;;;;;5.80;4.87;;;;;;;8.59;72.39;94229.25;5006043;28;20202;-68
2023/11/02 04:36:48;;;;;;;8.20;4.53;;;;;;;8.55;72.07;94219.09;5009141;28;20191;-68
2023/11/02 04:39:14;;;;;;;6.40;4.50;;;;;;;8.57;71.82;94199.75;5010118;28;20204;-68
2023/11/02 04:41:39;;;;;;;9.30;5.63;;;;;;;8.78;71.17;94207.00;5010141;28;20188;-68
2023/11/02 04:44:05;;;;;;;8.90;6.63;;;;;;;8.68;71.68;94199.00;5009525;28;20207;-69
2023/11/02 04:46:31;;;;;;;5.23;4.73;;;;;;;8.75;71.50;94181.09;5009702;28;20263;-68
2023/11/02 04:48:56;;;;;;;6.73;4.47;;;;;;;8.72;71.83;94165.59;5009799;28;20176;-68
2023/11/02 04:51:21;;;;;;;5.10;4.60;;;;;;;8.68;72.46;94155.38;5009798;28;20172;-68
2023/11/02 04:53:47;;;;;;;8.33;4.90;;;;;;;8.76;71.53;94138.28;5009305;28;20207;-68
2023/11/02 04:56:12;;;;;;;5.40;4.63;;;;;;;8.84;71.93;94167.34;5009270;28;20183;-68
2023/11/02 04:58:37;;;;;;;4.67;4.00;;;;;;;8.90;71.62;94166.88;5009318;28;20226;-68
2023/11/02 05:01:03;;;;;;;9.60;4.63;;;;;;;8.68;72.27;94162.41;5009177;28;20235;-68
2023/11/02 05:03:28;;;;;;;4.47;3.93;;;;;;;8.58;72.00;94156.16;5009320;28;20195;-68
2023/11/02 05:05:54;;;;;;;6.50;4.27;;;;;;;8.38;73.09;94139.25;5009036;28;20258;-68
2023/11/02 05:08:19;;;;;;;4.87;3.93;;;;;;;7.96;74.45;94146.56;5009151;28;20979;-69
2023/11/02 05:10:44;;;;;;;5.57;3.97;;;;;;;7.78;76.31;94151.28;5009268;28;20172;-69
2023/11/02 05:13:10;;;;;;;7.13;3.90;;;;;;;8.21;74.08;94138.66;5009071;28;20273;-69
2023/11/02 05:15:35;;;;;;;8.17;4.60;;;;;;;8.43;73.45;94118.88;5008701;28;20184;-69
2023/11/02 05:18:01;;;;;;;6.30;4.50;;;;;;;8.65;73.15;94112.94;5008887;28;20299;-68
2023/11/02 05:20:27;;;;;;;4.50;3.70;;;;;;;8.80;72.18;94105.75;5008942;28;20283;-67
2023/11/02 05:22:53;;;;;;;5.90;3.83;;;;;;;8.82;71.72;94101.25;5009125;28;20184;-68
2023/11/02 05:25:19;;;;;;;8.63;4.90;;;;;;;8.94;71.76;94097.72;5009291;28;20461;-69
2023/11/02 05:27:44;;;;;;;6.20;4.70;;;;;;;8.95;71.88;94096.75;5009024;28;20196;-68
2023/11/02 05:30:10;;;;;;;5.53;4.70;;;;;;;8.85;72.26;94094.00;5009441;28;20176;-67
2023/11/02 05:32:38;;;;;;;10.40;5.40;;;;;;;8.93;71.54;94089.97;5014269;28;20207;-68
2023/11/02 05:35:04;;;;;;;13.07;6.87;;;;;;;8.98;71.15;94086.09;5028471;28;20188;-69
2023/11/02 05:37:29;;;;;;;10.60;6.30;;;;;;;9.01;70.69;94083.22;5028707;28;20438;-67
2023/11/02 05:39:55;;;;;;;8.70;5.83;;;;;;;9.04;69.97;94079.53;5028840;28;20580;-67
2023/11/02 05:42:20;;;;;;;7.50;5.50;;;;;;;9.10;69.99;94066.84;5028542;28;20241;-69
2023/11/02 05:44:45;;;;;;;7.20;4.47;;;;;;;8.98;70.29;94059.94;5028626;28;20183;-67
2023/11/02 05:47:11;;;;;;;5.90;4.80;;;;;;;8.85;70.13;94051.31;5028408;28;20195;-67
2023/11/02 05:49:37;;;;;;;10.50;6.80;;;;;;;8.89;70.63;94039.69;5028927;28;20172;-67
2023/11/02 05:52:03;;;;;;;11.50;5.00;;;;;;;8.87;70.76;94025.88;5028667;28;20256;-70
2023/11/02 05:54:28;;;;;;;10.13;5.63;;;;;;;8.99;70.90;94013.66;5028350;28;20202;-69
2023/11/02 05:56:53;;;;;;;8.70;6.33;;;;;;;8.44;71.83;93985.47;5028426;28;20214;-68
2023/11/02 05:59:19;;;;;;;7.53;5.73;;;;;;;8.24;73.99;93970.41;5028111;28;20195;-69
2023/11/02 06:01:44;;;;;;;9.63;6.80;;;;;;;8.12;75.78;93997.44;5028351;28;20179;-69
2023/11/02 06:04:10;;;;;;;9.70;7.40;;;;;;;8.62;73.60;94014.66;5027739;28;20265;-69
2023/11/02 06:06:35;;;;;;;14.37;6.87;;;;;;;8.93;73.08;94007.13;5028114;28;20206;-69
2023/11/02 06:09:02;;;;;;;8.40;5.77;;;;;;;8.71;73.60;93986.16;5028068;28;20171;-69
2023/11/02 06:11:27;;;;;;;7.43;6.13;;;;;;;8.58;73.68;93968.78;5027946;28;20176;-68
2023/11/02 06:13:53;;;;;;;9.23;6.53;;;;;;;8.16;75.76;93970.16;5027911;28;20422;-68
2023/11/02 06:16:18;;;;;;;11.97;10.60;;;;;;;8.09;76.17;93959.31;5027495;28;20179;-68
2023/11/02 06:18:44;;;;;;;9.27;7.87;;;;;;;8.04;76.89;93948.38;5027914;28;20658;-68
2023/11/02 06:21:09;;;;;;;8.43;5.63;;;;;;;7.80;77.49;93959.66;5028024;28;20262;-67
2023/11/02 06:23:35;;;;;;;9.93;5.93;;;;;;;7.82;77.88;93947.31;5027923;28;20190;-68
2023/11/02 06:26:00;;;;;;;6.50;5.43;;;;;;;8.11;76.67;93940.94;5027495;28;20193;-68
2023/11/02 06:28:25;;;;;;;6.87;5.60;;;;;;;7.97;77.48;93931.47;5027828;28;20196;-68
2023/11/02 06:30:51;;;;;;;6.13;4.73;;;;;;;7.95;77.21;93938.59;5026306;28;20191;-68
2023/11/02 06:33:28;;;;;;;6.13;5.17;;;;;;;8.07;77.21;93941.13;5017448;28;20180;-68
2023/11/02 06:35:56;;;;;;;9.63;5.33;;;;;;;8.13;76.71;93928.59;5007310;28;20415;-69
2023/11/02 06:38:21;;;;;;;6.10;4.33;;;;;;;8.17;76.13;93930.88;5007426;28;20848;-69
2023/11/02 06:40:47;;;;;;;12.20;5.53;;;;;;;8.46;75.62;93923.47;5007537;28;20459;-69
2023/11/02 06:43:13;;;;;;;7.43;4.80;;;;;;;8.49;74.64;93917.19;5007376;28;20226;-69
2023/11/02 06:45:38;;;;;;;9.80;6.60;;;;;;;8.64;74.29;93896.88;5007140;28;20509;-68
2023/11/02 06:48:04;;;;;;;11.67;5.70;;;;;;;8.74;73.90;93928.38;5007571;28;20243;-68
2023/11/02 06:50:29;;;;;;;9.70;5.50;;;;;;;8.87;73.13;93943.03;5007466;28;20192;-69
2023/11/02 06:52:55;;;;;;;6.03;5.40;;;;;;;8.88;73.48;93946.47;5005819;28;20172;-69
2023/11/02 06:55:21;;;;;;;15.00;5.73;;;;;;;8.93;73.85;93944.34;5005389;28;20187;-69
2023/11/02 06:57:46;;;;;;;11.80;5.07;;;;;;;8.88;73.10;93941.22;5007005;28;20242;-68
2023/11/02 07:00:13;;;;;;;32.27;6.90;;;;;;;8.74;73.45;93939.69;5007283;28;20215;-68
2023/11/02 07:02:39;;;;;;;9.67;5.53;;;;;;;8.87;73.67;93960.50;5007539;28;20301;-68
2023/11/02 07:05:05;;;;;;;6.40;4.57;;;;;;;8.94;73.73;93984.41;5007439;28;20970;-69
2023/11/02 07:07:30;;;;;;;6.63;5.20;;;;;;;9.04;73.22;94008.91;5007479;28;20200;-69
2023/11/02 07:09:56;;;;;;;4.90;3.67;;;;;;;8.77;73.82;93997.00;5007183;28;20172;-68
2023/11/02 07:12:22;;;;;;;17.53;5.70;;;;;;;8.73;73.71;94024.31;5007319;28;20206;-69
2023/11/02 07:14:48;;;;;;;8.43;4.67;;;;;;;9.06;72.81;94020.91;5006916;28;21219;-68
2023/11/02 07:17:15;;;;;;;4.40;2.97;;;;;;;8.99;71.22;94000.59;5006545;28;20204;-68
2023/11/02 07:19:41;;;;;;;4.83;3.50;;;;;;;9.01;72.03;94012.59;5007082;28;20455;-67
2023/11/02 07:22:06;;;;;;;4.30;3.50;;;;;;;9.23;72.61;94018.81;5008646;28;20442;-68
2023/11/02 07:24:31;;;;;;;6.20;4.20;;;;;;;9.31;72.44;94005.97;5007460;28;20246;-68
2023/11/02 07:26:57;;;;;;;9.33;3.97;;;;;;;9.32;72.31;93995.38;5008097;28;20194;-69
2023/11/02 07:29:23;;;;;;;7.67;3.53;;;;;;;9.24;71.97;93976.00;5010469;28;20665;-69
2023/11/02 07:31:48;;;;;;;9.20;3.37;;;;;;;9.40;71.52;93971.25;5010597;28;20183;-69
2023/11/02 07:34:13;;;;;;;5.67;2.90;;;;;;;9.49;71.38;93982.75;5028946;28;20262;-69
2023/11/02 07:36:39;;;;;;;4.33;2.60;;;;;;;9.33;70.38;93983.97;5028947;28;20178;-70
2023/11/02 07:39:05;;;;;;;5.00;3.10;;;;;;;9.20;71.11;93998.94;5029278;28;20199;-69
2023/11/02 07:41:30;;;;;;;6.60;3.37;;;;;;;9.21;71.40;93994.53;5029744;28;20187;-69
2023/11/02 07:43:56;;;;;;;3.40;2.73;;;;;;;9.08;72.48;93986.81;5030007;28;20817;-69
2023/11/02 07:46:21;;;;;;;7.80;2.77;;;;;;;9.25;71.85;93975.03;5029766;28;20229;-69
2023/11/02 07:48:47;;;;;;;3.67;2.97;;;;;;;8.92;73.39;93945.28;5029045;28;20237;-69
2023/11/02 07:51:13;;;;;;;8.80;3.27;;;;;;;9.20;72.62;93958.88;5027775;28;20176;-69
2023/11/02 07:53:39;;;;;;;7.03;2.20;;;;;;;8.87;73.59;93950.03;5026157;28;20677;-68
2023/11/02 07:56:04;;;;;;;5.43;2.50;;;;;;;9.20;72.87;93940.56;5025757;28;20425;-68
2023/11/02 07:58:30;;;;;;;4.77;3.20;;;;;;;9.01;73.14;93965.50;5026409;28;20195;-68
2023/11/02 08:00:55;;;;;;;6.00;2.90;;;;;;;9.03;73.01;93934.84;5026322;28;20311;-68
2023/11/02 08:03:21;;;;;;;5.93;4.63;;;;;;;9.01;73.26;93938.53;5026555;28;20512;-69
2023/11/02 08:05:46;;;;;;;6.37;4.27;;;;;;;8.76;74.96;93932.53;5026349;28;20186;-69
2023/11/02 08:08:12;;;;;;;6.47;3.50;;;;;;;9.00;74.20;93935.09;5025954;28;20544;-69
2023/11/02 08:10:37;;;;;;;8.90;3.57;;;;;;;9.37;72.88;93934.00;5027424;28;20186;-68
2023/11/02 08:13:02;;;;;;;6.77;3.30;;;;;;;9.49;72.39;93940.88;5030179;28;20904;-68
2023/11/02 08:15:28;;;;;;;4.50;3.50;;;;;;;9.60;72.27;93942.66;5029113;28;20195;-68
2023/11/02 08:17:54;;;;;;;10.33;4.03;;;;;;;9.63;71.56;93947.63;5029719;28;20205;-69
2023/11/02 08:20:19;;;;;;;3.77;2.80;;;;;;;9.41;71.88;93956.38;5029616;28;20215;-69
2023/11/02 08:22:45;;;;;;;56.80;7.67;;;;;;;9.51;71.29;93957.28;5029713;28;20194;-69
2023/11/02 08:25:10;;;;;;;5.40;3.90;;;;;;;9.62;71.66;93935.50;5029548;28;20296;-69
2023/11/02 08:27:36;;;;;;;12.83;4.10;;;;;;;9.59;72.20;93925.25;5029552;28;20202;-68
2023/11/02 08:30:03;;;;;;;8.97;3.77;;;;;;;9.58;73.05;93927.06;5029703;28;20179;-68
2023/11/02 08:32:28;;;;;;;12.10;4.53;;;;;;;9.73;72.41;93928.47;5025210;28;20408;-68
2023/11/02 08:34:54;;;;;;;22.20;5.30;;;;;;;9.67;72.11;93921.09;5009725;28;20415;-68
2023/11/02 08:37:19;;;;;;;13.47;3.20;;;;;;;9.75;72.28;93934.38;5009660;28;20278;-68
2023/11/02 08:39:44;;;;;;;7.87;3.30;;;;;;;9.57;72.02;93937.63;5009540;28;20258;-69
2023/11/02 08:42:10;;;;;;;18.10;4.70;;;;;;;9.67;72.90;93946.44;5009747;28;20207;-69
2023/11/02 08:44:40;;;;;;;9.73;3.50;;;;;;;9.76;73.43;93932.63;5009330;28;20697;-68
2023/11/02 08:47:06;;;;;;;11.83;3.10;;;;;;;9.79;72.37;93921.06;5009842;28;20950;-68
2023/11/02 08:49:31;;;;;;;8.87;2.87;;;;;;;9.53;73.27;93898.63;5009687;28;20403;-69
2023/11/02 08:51:56;;;;;;;9.03;3.10;;;;;;;9.62;73.36;93912.78;5009245;28;20245;-68
2023/11/02 08:54:22;;;;;;;8.20;3.20;;;;;;;9.81;73.39;93917.38;5010297;28;20187;-67
2023/11/02 08:56:47;;;;;;;4.40;3.27;;;;;;;9.83;73.59;93891.88;5009753;28;20649;-68
2023/11/02 08:59:13;;;;;;;13.47;3.30;;;;;;;9.69;73.71;93879.06;5009697;28;20204;-70
2023/11/02 09:01:38;;;;;;;4.13;2.90;;;;;;;9.65;73.20;93885.50;5009946;28;20183;-69
2023/11/02 09:04:04;;;;;;;7.17;3.70;;;;;;;9.40;74.39;93890.09;5009020;28;20176;-69
2023/11/02 09:06:29;;;;;;;7.57;3.70;;;;;;;9.46;74.47;93886.16;5009492;28;20266;-69
2023/11/02 09:08:57;;;;;;;4.50;3.00;;;;;;;9.21;75.05;93887.25;5009309;28;20195;-69
2023/11/02 09:11:24;;;;;;;5.00;2.70;;;;;;;9.47;74.46;93882.56;5009466;28;20172;-69
2023/11/02 09:13:49;;;;;;;8.27;2.93;;;;;;;9.53;74.14;93867.19;5009186;28;20419;-68
2023/11/02 09:16:15;;;;;;;9.30;4.60;;;;;;;9.36;76.00;93854.66;5009179;28;20488;-69
2023/11/02 09:18:40;;;;;;;12.97;4.20;;;;;;;9.25;77.22;93842.41;5009247;28;20207;-69
2023/11/02 09:21:06;;;;;;;6.30;4.20;;;;;;;9.18;76.75;93829.94;5008720;28;20210;-68
2023/11/02 09:23:34;;;;;;;4.50;3.70;;;;;;;9.18;77.10;93828.16;5009247;28;20181;-69
2023/11/02 09:25:59;;;;;;;6.10;4.03;;;;;;;9.04;77.71;93831.84;5008709;28;20423;-67
2023/11/02 09:28:25;;;;;;;5.87;4.27;;;;;;;9.17;76.91;93839.56;5009207;28;20427;-68
2023/11/02 09:30:51;;;;;;;3.87;3.30;;;;;;;9.22;75.42;93854.91;5009146;28;20319;-69
2023/11/02 09:33:16;;;;;;;7.77;4.00;;;;;;;8.90;76.57;93851.28;5019756;28;20501;-69
2023/11/02 09:35:42;;;;;;;4.63;3.70;;;;;;;8.96;77.01;93852.56;5028675;28;20171;-69
2023/11/02 09:38:07;;;;;;;6.63;4.27;;;;;;;9.16;75.85;93839.69;5028560;28;20194;-69
2023/11/02 09:40:33;;;;;;;7.67;5.87;;;;;;;9.14;77.04;93837.19;5028723;28;20199;-69
2023/11/02 09:43:02;;;;;;;9.07;5.10;;;;;;;9.23;75.66;93839.06;5028996;28;20237;-69
2023/11/02 09:45:29;;;;;;;5.60;5.00;;;;;;;9.25;76.09;93839.78;5028819;28;20183;-69
2023/11/02 09:47:56;;;;;;;4.97;4.20;;;;;;;9.36;75.68;93820.63;5029466;28;20438;-69
2023/11/02 09:50:22;;;;;;;4.63;3.80;;;;;;;9.19;76.50;93810.66;5028782;28;20405;-69
2023/11/02 09:52:48;;;;;;;5.87;3.50;;;;;;;8.91;76.83;93805.03;5028807;28;20429;-69
2023/11/02 09:55:13;;;;;;;4.23;3.17;;;;;;;8.97;77.83;93808.91;5028095;28;20414;-69
2023/11/02 09:57:40;;;;;;;6.73;3.50;;;;;;;9.10;75.95;93820.91;5028161;28;20606;-69
2023/11/02 10:00:08;;;;;;;12.17;5.37;;;;;;;9.32;75.79;93837.50;5028463;28;20199;-69
2023/11/02 10:02:34;;;;;;;5.57;3.40;;;;;;;9.49;74.81;93852.69;5028435;28;21062;-68
2023/11/02 10:05:00;;;;;;;7.23;3.63;;;;;;;9.63;73.69;93861.22;5027927;28;20422;-68
2023/11/02 10:07:26;;;;;;;8.20;3.60;;;;;;;9.78;74.85;93873.09;5028196;28;20422;-69
2023/11/02 10:09:52;;;;;;;3.57;3.27;;;;;;;9.91;74.65;93886.84;5027940;28;20417;-68
2023/11/02 10:12:18;;;;;;;6.33;3.57;;;;;;;10.02;74.12;93906.94;5027944;28;20286;-68
2023/11/02 10:14:43;;;;;;;3.80;3.40;;;;;;;9.82;74.68;93911.16;5028196;28;20273;-69
2023/11/02 10:17:12;;;;;;;12.37;6.03;;;;;;;9.89;75.34;93901.03;5028019;28;20552;-69
2023/11/02 10:19:37;;;;;;;7.90;3.53;;;;;;;9.60;76.27;93900.75;5027584;28;20299;-69
2023/11/02 10:22:04;;;;;;;4.73;2.97;;;;;;;9.19;76.70;93902.22;5027500;28;20544;-69
2023/11/02 10:24:32;;;;;;;8.20;3.50;;;;;;;9.68;76.51;93878.22;5027807;28;20172;-68
2023/11/02 10:26:58;;;;;;;9.10;3.60;;;;;;;9.85;76.30;93868.16;5027211;28;20484;-69
2023/11/02 10:29:25;;;;;;;8.07;4.10;;;;;;;9.81;77.00;93854.50;5027282;28;20418;-69
2023/11/02 10:31:53;;;;;;;6.20;3.87;;;;;;;9.87;77.25;93840.06;5032600;28;20222;-68
2023/11/02 10:34:20;;;;;;;6.50;3.57;;;;;;;9.96;76.24;93827.03;5007725;28;20497;-69
2023/11/02 10:36:47;;;;;;;9.23;4.03;;;;;;;10.06;76.09;93818.41;5008015;28;20422;-69
2023/11/02 10:39:18;;;;;;;3.83;3.40;;;;;;;10.07;75.64;93830.56;5008478;28;20961;-69
2023/11/02 10:41:55;;;;;;;8.87;3.10;;;;;;;10.13;75.68;93843.16;5008306;28;20942;-68
2023/11/02 10:44:26;;;;;;;3.50;2.90;;;;;;;10.18;74.98;93857.56;5007901;28;20443;-68
2023/11/02 10:46:57;;;;;;;5.13;2.90;;;;;;;10.19;75.37;93884.56;5012912;28;20430;-68
2023/11/02 10:49:29;;;;;;;10.20;3.43;;;;;;;10.11;75.07;93898.31;5007656;28;20554;-68
2023/11/02 10:51:58;;;;;;;3.73;3.33;;;;;;;10.03;74.52;93889.41;5007381;28;20438;-68
2023/11/02 10:54:39;;;;;;;4.20;2.90;;;;;;;10.00;74.77;93893.13;5007245;28;20542;-67
2023/11/02 10:57:19;;;;;;;6.30;3.60;;;;;;;9.98;75.23;93900.28;5007594;28;20438;-69
2023/11/02 10:59:45;;;;;;;5.87;3.40;;;;;;;10.01;75.61;93904.44;5007630;28;20466;-68
2023/11/02 11:02:14;;;;;;;3.90;3.60;;;;;;;9.99;76.14;93901.91;5007858;28;20423;-68
2023/11/02 11:04:43;;;;;;;4.97;3.97;;;;;;;9.90;77.03;93915.78;5006936;28;20407;-68
2023/11/02 11:07:09;;;;;;;19.50;3.97;;;;;;;9.89;77.31;93909.69;5007089;28;20830;-68
2023/11/02 11:09:36;;;;;;;6.60;4.23;;;;;;;10.08;77.14;93902.97;5006891;28;20465;-69
2023/11/02 11:12:04;;;;;;;8.70;4.43;;;;;;;10.11;77.04;93900.09;5007581;28;20469;-68
2023/11/02 11:14:30;;;;;;;11.40;4.20;;;;;;;10.16;77.19;93892.72;5006861;28;20447;-68
2023/11/02 11:16:58;;;;;;;11.03;3.73;;;;;;;10.05;76.97;93882.28;5006752;28;20446;-69
2023/11/02 11:19:24;;;;;;;8.80;4.70;;;;;;;10.18;76.62;93889.00;5007209;28;20792;-68
2023/11/02 11:21:52;;;;;;;7.03;4.10;;;;;;;9.98;77.08;93905.50;5007481;28;20409;-69
2023/11/02 11:24:21;;;;;;;9.30;4.30;;;;;;;9.96;77.47;93897.75;5006889;28;20782;-69
2023/11/02 11:26:50;;;;;;;6.67;4.60;;;;;;;9.99;77.19;93901.91;5007053;28;20502;-69
2023/11/02 11:29:53;;;;;;;5.97;5.30;;;;;;;10.02;77.30;93911.34;5007299;28;20929;-68
2023/11/02 11:32:24;;;;;;;7.60;4.70;;;;;;;10.14;76.57;93910.34;5006463;28;20435;-68
2023/11/02 11:35:02;;;;;;;20.03;6.70;;;;;;;9.89;76.92;93930.66;5026464;28;20422;-68
2023/11/02 11:37:52;;;;;;;7.80;5.60;;;;;;;10.02;76.10;93921.81;5026182;28;20437;-69
2023/11/02 11:40:20;;;;;;;5.67;4.73;;;;;;;9.64;77.44;93923.97;5026461;28;20466;-68
2023/11/02 11:43:12;;;;;;;5.77;5.03;;;;;;;9.64;77.72;93921.34;5027105;28;20771;-68
2023/11/02 11:45:43;;;;;;;6.97;5.37;;;;;;;9.71;77.34;93925.13;5026732;28;20422;-68
2023/11/02 11:48:12;;;;;;;6.23;5.63;;;;;;;9.82;76.87;93926.03;5026701;28;20434;-68
2023/11/02 11:50:40;;;;;;;6.70;5.90;;;;;;;9.86;76.76;93937.94;5026856;28;20418;-68
2023/11/02 11:53:23;;;;;;;17.03;9.07;;;;;;;9.60;78.39;93932.19;5028773;28;20413;-68